createdAt,value
2023-04-29T00:00:17.888Z,100973.53
2023-04-29T00:02:48.497Z,100975.19
2023-04-29T00:05:18.210Z,100985.16
2023-04-29T00:07:47.539Z,100978.47
2023-04-29T00:10:16.679Z,100977.03
2023-04-29T00:12:45.810Z,100984.16
2023-04-29T00:15:15.301Z,100985.50
2023-04-29T00:17:45.540Z,100996.69
2023-04-29T00:20:16.435Z,100997.53
2023-04-29T00:22:45.522Z,100984.34
2023-04-29T00:25:14.796Z,100992.00
2023-04-29T00:27:43.876Z,100992.31
2023-04-29T00:30:13.663Z,100988.25
2023-04-29T00:32:43.804Z,100990.88
2023-04-29T00:35:15.354Z,100995.81
2023-04-29T00:37:44.453Z,100992.63
2023-04-29T00:40:15.185Z,100998.69
2023-04-29T00:42:44.332Z,100996.81
2023-04-29T00:45:13.656Z,101002.25
2023-04-29T00:47:43.004Z,101003.03
2023-04-29T00:50:12.582Z,101005.41
2023-04-29T00:52:44.149Z,101014.41
2023-04-29T00:55:14.027Z,101013.78
2023-04-29T00:57:43.569Z,101023.69
2023-04-29T01:00:14.403Z,101016.69
2023-04-29T01:02:43.599Z,101026.41
2023-04-29T01:05:12.810Z,101017.78
2023-04-29T01:07:53.859Z,101022.06
2023-04-29T01:10:29.760Z,101024.75
2023-04-29T01:13:07.232Z,101030.06
2023-04-29T01:15:46.684Z,101027.03
2023-04-29T01:18:23.559Z,101031.63
2023-04-29T01:20:53.014Z,101035.91
2023-04-29T01:23:29.971Z,101036.91
2023-04-29T01:25:59.688Z,101033.84
2023-04-29T01:28:52.050Z,101043.22
2023-04-29T01:31:28.261Z,101041.56
2023-04-29T01:34:09.069Z,101049.94
2023-04-29T01:36:48.219Z,101045.56
2023-04-29T01:39:28.103Z,101053.06
2023-04-29T01:42:15.114Z,101044.38
2023-04-29T01:44:44.938Z,101051.59
2023-04-29T01:47:16.011Z,101051.91
2023-04-29T01:49:51.234Z,101046.06
2023-04-29T01:52:20.459Z,101048.38
2023-04-29T01:55:11.044Z,101048.19
2023-04-29T01:57:48.493Z,101053.06
2023-04-29T02:00:34.000Z,101060.28
2023-04-29T02:03:03.389Z,101061.41
2023-04-29T02:05:40.787Z,101066.66
2023-04-29T02:08:09.928Z,101071.03
2023-04-29T02:10:54.182Z,101075.44
2023-04-29T02:13:36.908Z,101076.59
2023-04-29T02:16:10.338Z,101089.53
2023-04-29T02:18:41.942Z,101087.34
2023-04-29T02:21:12.210Z,101091.81
2023-04-29T02:23:41.406Z,101092.34
2023-04-29T02:26:12.007Z,101097.25
2023-04-29T02:28:41.083Z,101096.72
2023-04-29T02:31:10.893Z,101103.72
2023-04-29T02:33:40.100Z,101098.41
2023-04-29T02:36:11.763Z,101093.81
2023-04-29T02:38:40.886Z,101096.00
2023-04-29T02:41:11.255Z,101102.56
2023-04-29T02:43:40.355Z,101098.41
2023-04-29T02:46:09.529Z,101103.84
2023-04-29T02:48:38.617Z,101099.97
2023-04-29T02:51:08.088Z,101108.63
2023-04-29T02:53:37.304Z,101116.38
2023-04-29T02:56:06.877Z,101117.00
2023-04-29T02:58:37.516Z,101122.75
2023-04-29T03:01:07.143Z,101126.81
2023-04-29T03:03:36.342Z,101120.13
2023-04-29T03:06:05.684Z,101114.69
2023-04-29T03:08:35.856Z,101125.97
2023-04-29T03:11:04.965Z,101121.28
2023-04-29T03:13:35.726Z,101128.66
2023-04-29T03:16:05.101Z,101135.69
2023-04-29T03:18:34.241Z,101137.66
2023-04-29T03:21:04.688Z,101143.94
2023-04-29T03:23:34.024Z,101152.78
2023-04-29T03:26:04.332Z,101152.69
2023-04-29T03:28:33.445Z,101154.91
2023-04-29T03:31:04.408Z,101159.59
2023-04-29T03:33:33.888Z,101162.09
2023-04-29T03:36:03.270Z,101161.91
2023-04-29T03:39:01.696Z,101159.31
2023-04-29T03:41:31.874Z,101158.66
2023-04-29T03:44:01.115Z,101153.03
2023-04-29T03:46:33.368Z,101151.88
2023-04-29T03:49:04.167Z,101160.00
2023-04-29T03:51:33.376Z,101156.88
2023-04-29T03:54:11.287Z,101161.47
2023-04-29T03:56:41.065Z,101163.03
2023-04-29T03:59:10.198Z,101169.19
2023-04-29T04:01:42.287Z,101167.91
2023-04-29T04:04:11.560Z,101177.31
2023-04-29T04:06:51.138Z,101193.59
2023-04-29T04:09:22.584Z,101186.50
2023-04-29T04:11:51.678Z,101199.25
2023-04-29T04:14:21.207Z,101201.94
2023-04-29T04:16:51.714Z,101209.09
2023-04-29T04:19:20.814Z,101208.53
2023-04-29T04:21:49.984Z,101215.25
2023-04-29T04:24:20.396Z,101209.94
2023-04-29T04:26:50.221Z,101216.91
2023-04-29T04:29:31.439Z,101229.00
2023-04-29T04:32:06.272Z,101223.91
2023-04-29T04:34:35.881Z,101231.09
2023-04-29T04:37:06.428Z,101234.56
2023-04-29T04:39:36.575Z,101233.88
2023-04-29T04:42:05.848Z,101236.69
2023-04-29T04:44:36.282Z,101238.09
2023-04-29T04:47:11.528Z,101233.88
2023-04-29T04:50:12.950Z,101248.75
2023-04-29T04:52:42.662Z,101253.41
2023-04-29T04:55:41.858Z,101257.38
2023-04-29T04:58:11.009Z,101260.09
2023-04-29T05:00:46.354Z,101266.66
2023-04-29T05:03:17.472Z,101271.56
2023-04-29T05:05:46.646Z,101277.75
2023-04-29T05:08:15.757Z,101277.97
2023-04-29T05:10:48.362Z,101273.38
2023-04-29T05:13:17.514Z,101275.00
2023-04-29T05:15:46.855Z,101276.59
2023-04-29T05:18:21.731Z,101281.13
2023-04-29T05:20:53.127Z,101284.72
2023-04-29T05:23:23.092Z,101276.09
2023-04-29T05:25:52.192Z,101275.38
2023-04-29T05:28:21.487Z,101271.72
2023-04-29T05:30:52.961Z,101277.19
2023-04-29T05:33:24.149Z,101279.09
2023-04-29T05:35:53.680Z,101273.84
2023-04-29T05:38:28.743Z,101266.38
2023-04-29T05:41:05.708Z,101262.88
2023-04-29T05:43:43.458Z,101261.19
2023-04-29T05:46:16.535Z,101259.69
2023-04-29T05:48:47.085Z,101254.84
2023-04-29T05:51:16.639Z,101250.19
2023-04-29T05:53:46.094Z,101258.91
2023-04-29T05:56:15.304Z,101259.09
2023-04-29T05:58:44.394Z,101260.81
2023-04-29T06:01:13.612Z,101259.78
2023-04-29T06:03:42.973Z,101261.38
2023-04-29T06:06:34.470Z,101262.97
2023-04-29T06:09:29.327Z,101267.19
2023-04-29T06:12:03.033Z,101267.63
2023-04-29T06:14:32.338Z,101278.69
2023-04-29T06:17:02.043Z,101289.06
2023-04-29T06:19:32.607Z,101293.72
2023-04-29T06:22:03.217Z,101295.31
2023-04-29T06:24:33.470Z,101297.78
2023-04-29T06:27:04.226Z,101291.09
2023-04-29T06:29:33.817Z,101294.84
2023-04-29T06:32:03.014Z,101295.31
2023-04-29T06:34:32.478Z,101293.47
2023-04-29T06:37:21.311Z,101295.19
2023-04-29T06:40:13.958Z,101297.94
2023-04-29T06:43:02.227Z,101304.50
2023-04-29T06:45:51.762Z,101313.41
2023-04-29T06:48:24.422Z,101300.44
2023-04-29T06:50:54.372Z,101302.31
2023-04-29T06:53:25.720Z,101304.97
2023-04-29T06:55:54.835Z,101310.25
2023-04-29T06:58:24.029Z,101314.53
2023-04-29T07:00:53.791Z,101311.97
2023-04-29T07:03:24.623Z,101322.03
2023-04-29T07:05:53.776Z,101318.06
2023-04-29T07:08:24.236Z,101319.03
2023-04-29T07:10:57.118Z,101322.44
2023-04-29T07:13:26.463Z,101317.44
2023-04-29T07:15:55.497Z,101315.31
2023-04-29T07:18:24.682Z,101323.63
2023-04-29T07:20:55.708Z,101325.31
2023-04-29T07:23:26.439Z,101326.72
2023-04-29T07:25:55.529Z,101325.78
2023-04-29T07:28:24.620Z,101327.69
2023-04-29T07:30:55.335Z,101338.50
2023-04-29T07:33:24.437Z,101331.59
2023-04-29T07:35:53.720Z,101341.31
2023-04-29T07:38:23.065Z,101343.19
2023-04-29T07:40:53.647Z,101347.72
2023-04-29T07:43:22.803Z,101351.91
2023-04-29T07:45:52.198Z,101353.66
2023-04-29T07:48:22.358Z,101345.06
2023-04-29T07:50:51.489Z,101340.97
2023-04-29T07:53:20.539Z,101343.41
2023-04-29T07:55:49.603Z,101346.97
2023-04-29T07:58:20.622Z,101358.59
2023-04-29T08:00:49.770Z,101355.78
2023-04-29T08:03:19.283Z,101360.84
2023-04-29T08:05:48.603Z,101367.97
2023-04-29T08:08:19.225Z,101364.69
2023-04-29T08:10:48.294Z,101373.66
2023-04-29T08:13:18.766Z,101372.16
2023-04-29T08:15:47.874Z,101384.94
2023-04-29T08:18:17.696Z,101386.09
2023-04-29T08:20:48.080Z,101385.88
2023-04-29T08:23:17.240Z,101397.00
2023-04-29T08:25:51.801Z,101389.97
2023-04-29T08:28:22.300Z,101395.97
2023-04-29T08:30:51.469Z,101397.38
2023-04-29T08:33:20.595Z,101408.31
2023-04-29T08:35:49.922Z,101407.66
2023-04-29T08:38:18.981Z,101415.47
2023-04-29T08:40:48.346Z,101412.34
2023-04-29T08:43:17.965Z,101422.03
2023-04-29T08:45:51.004Z,101424.09
2023-04-29T08:48:20.912Z,101423.91
2023-04-29T08:50:50.120Z,101419.25
2023-04-29T08:53:19.776Z,101412.44
2023-04-29T08:55:49.537Z,101421.78
2023-04-29T08:58:19.086Z,101418.25
2023-04-29T09:00:50.355Z,101428.75
2023-04-29T09:03:26.015Z,101431.13
2023-04-29T09:05:56.780Z,101429.59
2023-04-29T09:08:26.387Z,101428.63
2023-04-29T09:10:57.325Z,101424.09
2023-04-29T09:13:27.664Z,101422.94
2023-04-29T09:15:58.733Z,101434.44
2023-04-29T09:18:48.023Z,101430.63
2023-04-29T09:21:21.245Z,101433.28
2023-04-29T09:23:53.295Z,101435.31
2023-04-29T09:26:24.082Z,101440.28
2023-04-29T09:29:10.054Z,101435.00
2023-04-29T09:31:41.215Z,101435.06
2023-04-29T09:34:11.906Z,101442.13
2023-04-29T09:36:44.902Z,101450.63
2023-04-29T09:39:16.218Z,101454.69
2023-04-29T09:42:02.737Z,101449.72
2023-04-29T09:44:35.790Z,101456.47
2023-04-29T09:47:07.665Z,101447.69
2023-04-29T09:49:39.706Z,101438.72
2023-04-29T09:52:10.607Z,101450.78
2023-04-29T09:54:41.865Z,101449.50
2023-04-29T09:57:12.113Z,101453.22
2023-04-29T09:59:43.461Z,101455.44
2023-04-29T10:02:17.705Z,101442.25
2023-04-29T10:04:48.431Z,101462.66
2023-04-29T10:07:19.091Z,101462.00
2023-04-29T10:09:49.213Z,101457.38
2023-04-29T10:12:19.925Z,101462.50
2023-04-29T10:14:55.950Z,101461.34
2023-04-29T10:17:37.957Z,101459.66
2023-04-29T10:20:09.303Z,101454.50
2023-04-29T10:22:47.880Z,101461.47
2023-04-29T10:25:18.312Z,101465.88
2023-04-29T10:27:48.963Z,101467.91
2023-04-29T10:30:19.932Z,101475.50
2023-04-29T10:32:52.908Z,101468.22
2023-04-29T10:35:25.381Z,101478.84
2023-04-29T10:37:57.042Z,101480.38
2023-04-29T10:40:31.745Z,101468.75
2023-04-29T10:43:01.314Z,101473.28
2023-04-29T10:45:32.510Z,101477.94
2023-04-29T10:48:13.462Z,101471.06
2023-04-29T10:51:04.427Z,101476.31
2023-04-29T10:53:33.581Z,101476.38
2023-04-29T10:56:09.260Z,101484.19
2023-04-29T10:58:44.313Z,101484.66
2023-04-29T11:01:15.367Z,101482.00
2023-04-29T11:03:54.898Z,101473.72
2023-04-29T11:06:26.008Z,101479.44
2023-04-29T11:09:14.519Z,101488.56
2023-04-29T11:11:59.023Z,101485.69
2023-04-29T11:14:30.921Z,101483.38
2023-04-29T11:17:02.366Z,101487.09
2023-04-29T11:19:37.379Z,101482.69
2023-04-29T11:22:12.898Z,101490.25
2023-04-29T11:24:54.004Z,101485.66
2023-04-29T11:27:26.230Z,101485.06
2023-04-29T11:29:58.802Z,101491.03
2023-04-29T11:32:29.325Z,101496.22
2023-04-29T11:35:09.366Z,101498.75
2023-04-29T11:37:38.650Z,101482.56
2023-04-29T11:40:09.215Z,101495.31
2023-04-29T11:42:42.340Z,101493.63
2023-04-29T11:45:12.263Z,101492.78
2023-04-29T11:47:46.301Z,101500.50
2023-04-29T11:50:19.727Z,101494.28
2023-04-29T11:52:50.154Z,101491.50
2023-04-29T11:55:19.713Z,101490.44
2023-04-29T11:57:51.524Z,101488.38
2023-04-29T12:00:20.984Z,101497.53
2023-04-29T12:02:50.359Z,101501.13
2023-04-29T12:05:21.173Z,101497.47
2023-04-29T12:07:51.696Z,101506.09
2023-04-29T12:10:21.459Z,101498.00
2023-04-29T12:12:50.960Z,101501.38
2023-04-29T12:15:20.334Z,101505.69
2023-04-29T12:17:49.695Z,101503.56
2023-04-29T12:20:20.220Z,101510.69
2023-04-29T12:22:49.795Z,101513.31
2023-04-29T12:25:20.672Z,101505.84
2023-04-29T12:27:50.394Z,101508.38
2023-04-29T12:30:21.251Z,101515.16
2023-04-29T12:32:52.963Z,101511.28
2023-04-29T12:35:24.156Z,101507.19
2023-04-29T12:37:53.219Z,101505.41
2023-04-29T12:40:23.071Z,101506.16
2023-04-29T12:42:54.296Z,101498.72
2023-04-29T12:45:31.976Z,101503.41
2023-04-29T12:48:02.414Z,101508.31
2023-04-29T12:50:35.935Z,101503.38
2023-04-29T12:53:06.689Z,101505.28
2023-04-29T12:55:36.047Z,101509.22
2023-04-29T12:58:05.547Z,101514.44
2023-04-29T13:00:37.307Z,101503.72
2023-04-29T13:03:07.964Z,101508.16
2023-04-29T13:05:38.697Z,101519.19
2023-04-29T13:08:08.166Z,101518.97
2023-04-29T13:10:37.726Z,101523.72
2023-04-29T13:13:09.968Z,101519.28
2023-04-29T13:15:39.562Z,101530.47
2023-04-29T13:18:08.738Z,101519.03
2023-04-29T13:20:42.074Z,101517.09
2023-04-29T13:23:12.046Z,101519.31
2023-04-29T13:25:41.167Z,101522.56
2023-04-29T13:28:10.323Z,101518.91
2023-04-29T13:30:39.446Z,101524.41
2023-04-29T13:33:12.179Z,101523.91
2023-04-29T13:35:43.637Z,101517.91
2023-04-29T13:38:12.693Z,101511.06
2023-04-29T13:40:46.495Z,101518.97
2023-04-29T13:43:26.367Z,101521.47
2023-04-29T13:46:04.207Z,101528.41
2023-04-29T13:54:37.318Z,101532.59
2023-04-29T14:02:21.360Z,101545.13
2023-04-29T14:04:27.562Z,101549.66
2023-04-29T14:06:58.702Z,101545.53
2023-04-29T14:09:28.231Z,101555.38
2023-04-29T14:11:57.641Z,101547.47
2023-04-29T14:14:26.741Z,101562.03
2023-04-29T14:16:55.859Z,101556.63
2023-04-29T14:19:25.144Z,101562.84
2023-04-29T14:21:54.191Z,101568.75
2023-04-29T14:24:24.621Z,101573.47
2023-04-29T14:26:54.009Z,101574.81
2023-04-29T14:29:23.612Z,101586.81
2023-04-29T14:31:52.851Z,101585.00
2023-04-29T14:34:22.033Z,101574.81
2023-04-29T14:36:51.169Z,101582.56
2023-04-29T14:39:20.432Z,101590.28
2023-04-29T14:41:50.968Z,101592.94
2023-04-29T14:44:20.167Z,101592.34
2023-04-29T14:46:49.294Z,101594.16
2023-04-29T14:49:18.357Z,101599.59
2023-04-29T14:51:47.530Z,101606.41
2023-04-29T14:54:16.580Z,101604.59
2023-04-29T14:56:45.734Z,101614.47
2023-04-29T14:59:16.707Z,101620.03
2023-04-29T15:01:46.068Z,101616.66
2023-04-29T15:04:15.255Z,101623.34
2023-04-29T15:06:44.457Z,101618.63
2023-04-29T15:09:13.511Z,101621.50
2023-04-29T15:11:42.683Z,101618.28
2023-04-29T15:14:11.762Z,101630.31
2023-04-29T15:16:42.325Z,101631.38
2023-04-29T15:19:11.512Z,101628.06
2023-04-29T15:21:40.630Z,101626.28
2023-04-29T15:24:09.827Z,101616.59
2023-04-29T15:26:39.170Z,101642.72
2023-04-29T15:29:08.393Z,101637.72
2023-04-29T15:31:37.728Z,101629.22
2023-04-29T15:34:08.330Z,101635.72
2023-04-29T15:36:37.562Z,101629.88
2023-04-29T15:39:06.641Z,101632.44
2023-04-29T15:41:36.344Z,101641.28
2023-04-29T15:44:06.229Z,101642.94
2023-04-29T15:46:35.335Z,101647.25
2023-04-29T15:49:05.900Z,101640.47
2023-04-29T15:51:36.339Z,101643.69
2023-04-29T15:54:07.219Z,101659.50
2023-04-29T15:56:36.397Z,101653.34
2023-04-29T15:59:05.447Z,101660.19
2023-04-29T16:01:36.306Z,101643.50
2023-04-29T16:04:06.124Z,101653.72
2023-04-29T16:06:36.815Z,101663.69
2023-04-29T16:09:06.111Z,101652.88
2023-04-29T16:11:35.465Z,101662.78
2023-04-29T16:14:04.614Z,101671.22
2023-04-29T16:16:33.994Z,101668.78
2023-04-29T16:19:03.104Z,101663.38
2023-04-29T16:21:32.837Z,101674.47
2023-04-29T16:24:10.908Z,101669.19
2023-04-29T16:26:40.465Z,101685.56
2023-04-29T16:29:10.035Z,101679.75
2023-04-29T16:31:39.265Z,101678.97
2023-04-29T16:34:08.419Z,101671.94
2023-04-29T16:36:37.601Z,101681.88
2023-04-29T16:39:08.347Z,101680.47
2023-04-29T16:41:37.452Z,101670.59
2023-04-29T16:44:06.678Z,101676.78
2023-04-29T16:46:36.077Z,101677.47
2023-04-29T16:49:05.876Z,101671.31
2023-04-29T16:51:35.037Z,101693.94
2023-04-29T16:54:04.413Z,101689.47
2023-04-29T16:56:34.868Z,101689.16
2023-04-29T16:59:03.899Z,101698.59
2023-04-29T17:01:33.142Z,101693.81
2023-04-29T17:04:02.329Z,101695.78
2023-04-29T17:06:32.288Z,101685.03
2023-04-29T17:09:02.471Z,101697.03
2023-04-29T17:11:31.712Z,101700.84
2023-04-29T17:14:03.271Z,101709.69
2023-04-29T17:16:33.140Z,101711.06
2023-04-29T17:19:02.473Z,101706.63
2023-04-29T17:21:32.424Z,101710.16
2023-04-29T17:24:01.559Z,101710.75
2023-04-29T17:26:31.525Z,101722.25
2023-04-29T17:29:01.983Z,101719.44
2023-04-29T17:31:44.952Z,101720.25
2023-04-29T17:34:19.670Z,101720.03
2023-04-29T17:36:49.075Z,101724.44
2023-04-29T17:39:18.183Z,101724.34
2023-04-29T17:41:47.504Z,101732.22
2023-04-29T17:44:17.924Z,101737.38
2023-04-29T17:46:47.060Z,101729.34
2023-04-29T17:49:16.179Z,101730.19
2023-04-29T17:51:45.350Z,101739.41
2023-04-29T17:54:14.412Z,101748.06
2023-04-29T17:56:43.511Z,101748.28
2023-04-29T17:59:12.672Z,101748.09
2023-04-29T18:01:43.190Z,101758.50
2023-04-29T18:04:13.014Z,101763.66
2023-04-29T18:06:42.218Z,101759.56
2023-04-29T18:09:11.330Z,101764.03
2023-04-29T18:11:40.364Z,101769.91
2023-04-29T18:14:09.531Z,101776.84
2023-04-29T18:16:38.979Z,101774.72
2023-04-29T18:19:09.554Z,101779.16
2023-04-29T18:21:38.650Z,101779.47
2023-04-29T18:24:08.110Z,101791.97
2023-04-29T18:26:37.233Z,101785.94
2023-04-29T18:29:06.310Z,101790.75
2023-04-29T18:31:35.404Z,101787.00
2023-04-29T18:34:04.590Z,101792.13
2023-04-29T18:36:35.064Z,101799.44
2023-04-29T18:39:04.578Z,101805.72
2023-04-29T18:41:33.695Z,101809.72
2023-04-29T18:44:02.797Z,101811.84
2023-04-29T18:46:31.898Z,101807.31
2023-04-29T18:49:01.153Z,101813.78
2023-04-29T18:51:30.278Z,101814.72
2023-04-29T18:54:00.690Z,101822.69
2023-04-29T18:56:29.981Z,101824.63
2023-04-29T18:58:59.185Z,101826.56
2023-04-29T19:01:28.394Z,101834.38
2023-04-29T19:03:57.821Z,101839.03
2023-04-29T19:06:26.970Z,101838.75
2023-04-29T19:08:56.675Z,101847.47
2023-04-29T19:11:27.439Z,101842.97
2023-04-29T19:13:56.712Z,101846.06
2023-04-29T19:16:26.199Z,101851.78
2023-04-29T19:18:55.595Z,101861.22
2023-04-29T19:21:24.721Z,101873.16
2023-04-29T19:23:53.798Z,101872.50
2023-04-29T19:26:22.908Z,101868.41
2023-04-29T19:28:53.402Z,101877.28
2023-04-29T19:31:24.941Z,101882.38
2023-04-29T19:33:54.251Z,101884.16
2023-04-29T19:36:23.577Z,101882.72
2023-04-29T19:38:52.814Z,101876.19
2023-04-29T19:41:21.974Z,101881.75
2023-04-29T19:43:52.427Z,101894.81
2023-04-29T19:46:21.710Z,101899.84
2023-04-29T19:48:50.916Z,101897.38
2023-04-29T19:51:20.966Z,101903.19
2023-04-29T19:53:51.347Z,101902.13
2023-04-29T19:56:20.663Z,101897.22
2023-04-29T19:58:50.236Z,101908.53
2023-04-29T20:01:20.715Z,101914.78
2023-04-29T20:03:49.935Z,101913.03
2023-04-29T20:06:19.705Z,101912.34
2023-04-29T20:08:48.764Z,101909.31
2023-04-29T20:11:17.852Z,101912.69
2023-04-29T20:13:48.776Z,101918.59
2023-04-29T20:16:23.830Z,101919.44
2023-04-29T20:18:53.301Z,101932.00
2023-04-29T20:21:22.482Z,101928.09
2023-04-29T20:23:51.690Z,101939.03
2023-04-29T20:26:20.978Z,101936.78
2023-04-29T20:28:50.146Z,101946.31
2023-04-29T20:31:20.668Z,101941.94
2023-04-29T20:33:49.716Z,101945.72
2023-04-29T20:36:18.799Z,101947.44
2023-04-29T20:38:49.096Z,101950.13
2023-04-29T20:41:18.211Z,101956.81
2023-04-29T20:43:47.312Z,101958.53
2023-04-29T20:46:16.771Z,101957.63
2023-04-29T20:48:47.235Z,101961.81
2023-04-29T20:51:16.859Z,101964.59
2023-04-29T20:53:46.026Z,101969.56
2023-04-29T20:56:16.090Z,101975.09
2023-04-29T20:58:45.155Z,101974.19
2023-04-29T21:01:14.292Z,101979.97
2023-04-29T21:03:43.394Z,101982.63
2023-04-29T21:06:13.784Z,101978.38
2023-04-29T21:08:42.875Z,101986.25
2023-04-29T21:11:12.030Z,101980.13
2023-04-29T21:13:41.179Z,101984.44
2023-04-29T21:16:11.214Z,101980.97
2023-04-29T21:18:40.425Z,101992.19
2023-04-29T21:21:10.215Z,101985.22
2023-04-29T21:23:40.801Z,101989.50
2023-04-29T21:26:09.875Z,101992.41
2023-04-29T21:28:39.226Z,101993.25
2023-04-29T21:31:09.595Z,102002.75
2023-04-29T21:33:39.852Z,101997.81
2023-04-29T21:36:09.089Z,101994.31
2023-04-29T21:38:39.598Z,102003.13
2023-04-29T21:41:15.244Z,101993.84
2023-04-29T21:43:44.380Z,102011.22
2023-04-29T21:46:13.810Z,102011.91
2023-04-29T21:48:43.569Z,102009.31
2023-04-29T21:51:12.810Z,102012.50
2023-04-29T21:53:43.381Z,102021.63
2023-04-29T21:56:12.657Z,102022.28
2023-04-29T21:58:43.380Z,102017.75
2023-04-29T22:01:26.510Z,102016.91
2023-04-29T22:03:56.323Z,102017.41
2023-04-29T22:06:25.806Z,102021.09
2023-04-29T22:08:56.274Z,102022.00
2023-04-29T22:11:25.502Z,102023.00
2023-04-29T22:13:54.628Z,102027.88
2023-04-29T22:16:24.412Z,102033.94
2023-04-29T22:18:53.520Z,102030.31
2023-04-29T22:21:22.624Z,102036.72
2023-04-29T22:23:51.798Z,102030.66
2023-04-29T22:26:25.436Z,102043.94
2023-04-29T22:28:54.908Z,102044.22
2023-04-29T22:31:23.973Z,102052.72
2023-04-29T22:33:53.100Z,102047.59
2023-04-29T22:36:22.170Z,102052.38
2023-04-29T22:38:51.239Z,102055.16
2023-04-29T22:41:21.640Z,102058.59
2023-04-29T22:43:52.062Z,102047.00
2023-04-29T22:46:21.146Z,102051.56
2023-04-29T22:48:50.247Z,102054.41
2023-04-29T22:51:19.947Z,102066.66
2023-04-29T22:53:49.087Z,102064.19
2023-04-29T22:56:18.162Z,102059.97
2023-04-29T22:58:48.558Z,102056.25
2023-04-29T23:01:17.679Z,102053.94
2023-04-29T23:03:46.750Z,102059.00
2023-04-29T23:06:15.892Z,102065.50
2023-04-29T23:08:45.258Z,102065.88
2023-04-29T23:11:14.414Z,102068.66
2023-04-29T23:13:43.544Z,102065.94
2023-04-29T23:16:14.028Z,102071.94
2023-04-29T23:18:43.191Z,102064.41
2023-04-29T23:21:12.305Z,102074.91
2023-04-29T23:23:41.585Z,102069.13
2023-04-29T23:26:10.664Z,102072.75
2023-04-29T23:28:39.729Z,102073.59
2023-04-29T23:31:08.861Z,102071.31
2023-04-29T23:33:39.274Z,102070.00
2023-04-29T23:36:08.426Z,102066.19
2023-04-29T23:38:37.459Z,102077.16
2023-04-29T23:41:06.631Z,102071.94
2023-04-29T23:43:35.748Z,102069.13
2023-04-29T23:46:04.873Z,102073.91
2023-04-29T23:48:33.934Z,102071.63
2023-04-29T23:51:04.362Z,102079.25
2023-04-29T23:53:33.413Z,102079.44
2023-04-29T23:56:02.544Z,102074.34
2023-04-29T23:58:31.607Z,102077.13
